McGehee Place, LA

7:52 AM CST on January 16, 2017 (GMT -0600)
Sherwood Forest | | Change Station

Elev 49 ft 30.45 °N, 91.06 °W | Updated 28 seconds ago

Mostly Cloudy
Mostly Cloudy
67.8 °F
Feels Like 67.8 °F
N
0.0
Wind Variable Wind from North
Gusts 0.0 mph

Today
High -- | Low -- °F
--% Chance of Precip.
Yesterday
High -- | Low -- °F
Precip. -- in
Pressure 30.11 in
Visibility 5.0 miles
Clouds Overcast 800 ft
Dew Point 68 °F
Humidity 99%
Rainfall Not available.
Snow Depth Not available.
7:01 AM 5:26 PM
Waning Gibbous, 81% visible
METAR KBTR 161253Z 13007KT 5SM BR OVC008 19/18 A3011 RMK AO2 CIG 006V011 SLP194 T01890178
Pressure 30.11 in
Visibility 5.0 miles
Clouds Overcast 800 ft
Dew Point 68 °F
Humidity 99%
Rainfall Not available.
Snow Depth Not available.
7:01 AM 5:26 PM
Waning Gibbous, 81% visible
METAR KBTR 161253Z 13007KT 5SM BR OVC008 19/18 A3011 RMK AO2 CIG 006V011 SLP194 T01890178

Get Your Daily Forecast Email!

Thanks for signing up!

Be on the lookout for a verification email in your inbox.

You'll start receiving the daily forecast at 8 AM.

×

10-Day Weather Forecast

Almanac

Astronomy

Jan. 16, 2017 Rise Set
Actual Time
Civil Twilight
Nautical Twilight
Astronomical Twilight
Moon
Length of Visible Light
Length of Day
Tomorrow will be .
, % of the Moon is Illuminated

Today's Extremes

State Highs State Lows

Community

WunderPhotos

Upload Photos

1,962,540 photos uploaded!

WunderBlog® & News

Nearby

Air Quality

  Air Quality AQ Index Pollutant
Not available.

Snow Depth

Station Depth Elevation

Earthquake Activity

City Distance Mag. Time & Date
Minimum magnitude displayed is 2.5.

Coastal Water Temperatures

Place Temperature

Stations

Nearby Weather Stations

Station Location Temp. Windchill Dew Point Humidity Wind Precip. Elev Updated Type
                   

Watches & Warnings

There are currently no watches in effect.